sensor_id;sensor_type;location;lat;lon;timestamp;pressure;altitude;pressure_sealevel;temperature;humidity
46682;BME280;34101;53.430;-2.224;2023-04-04T00:00:41;102467.72;;;7.89;61.26
46682;BME280;34101;53.430;-2.224;2023-04-04T00:03:09;102463.02;;;7.86;61.08
46682;BME280;34101;53.430;-2.224;2023-04-04T00:05:38;102459.67;;;7.86;60.54
46682;BME280;34101;53.430;-2.224;2023-04-04T00:08:05;102465.12;;;7.88;60.17
46682;BME280;34101;53.430;-2.224;2023-04-04T00:10:38;102465.38;;;7.94;59.74
46682;BME280;34101;53.430;-2.224;2023-04-04T00:13:05;102461.55;;;7.86;59.20
46682;BME280;34101;53.430;-2.224;2023-04-04T00:15:33;102464.55;;;7.87;58.52
46682;BME280;34101;53.430;-2.224;2023-04-04T00:18:00;102471.19;;;7.75;58.19
46682;BME280;34101;53.430;-2.224;2023-04-04T00:20:27;102475.71;;;7.87;57.97
46682;BME280;34101;53.430;-2.224;2023-04-04T00:22:55;102471.05;;;7.82;57.60
46682;BME280;34101;53.430;-2.224;2023-04-04T00:25:22;102468.81;;;7.78;57.36
46682;BME280;34101;53.430;-2.224;2023-04-04T00:30:01;102472.28;;;7.67;56.93
46682;BME280;34101;53.430;-2.224;2023-04-04T00:41:22;102468.83;;;7.58;55.72
46682;BME280;34101;53.430;-2.224;2023-04-04T00:43:48;102474.30;;;7.59;55.49
46682;BME280;34101;53.430;-2.224;2023-04-04T00:46:15;102472.40;;;7.56;55.23
46682;BME280;34101;53.430;-2.224;2023-04-04T02:27:23;102427.82;;;6.11;54.24
46682;BME280;34101;53.430;-2.224;2023-04-04T02:29:49;102427.89;;;6.05;54.46
46682;BME280;34101;53.430;-2.224;2023-04-04T02:38:52;102432.00;;;5.95;54.80
46682;BME280;34101;53.430;-2.224;2023-04-04T02:41:19;102433.78;;;5.93;54.83
46682;BME280;34101;53.430;-2.224;2023-04-04T02:43:45;102434.71;;;5.90;55.05
46682;BME280;34101;53.430;-2.224;2023-04-04T02:46:11;102425.65;;;5.93;55.09
46682;BME280;34101;53.430;-2.224;2023-04-04T02:48:38;102421.33;;;5.91;55.31
46682;BME280;34101;53.430;-2.224;2023-04-04T02:51:10;102424.14;;;5.90;55.40
46682;BME280;34101;53.430;-2.224;2023-04-04T02:53:36;102426.14;;;5.89;55.69
46682;BME280;34101;53.430;-2.224;2023-04-04T02:56:03;102426.78;;;5.90;55.82
46682;BME280;34101;53.430;-2.224;2023-04-04T02:58:30;102425.19;;;5.79;55.90
46682;BME280;34101;53.430;-2.224;2023-04-04T03:00:57;102426.15;;;5.75;56.10
46682;BME280;34101;53.430;-2.224;2023-04-04T03:03:23;102425.58;;;5.76;56.31
46682;BME280;34101;53.430;-2.224;2023-04-04T03:05:50;102427.03;;;5.77;56.15
46682;BME280;34101;53.430;-2.224;2023-04-04T03:08:18;102432.08;;;5.76;56.26
46682;BME280;34101;53.430;-2.224;2023-04-04T03:10:45;102432.80;;;5.77;56.28
46682;BME280;34101;53.430;-2.224;2023-04-04T03:13:13;102432.77;;;5.74;56.59
46682;BME280;34101;53.430;-2.224;2023-04-04T03:15:45;102430.36;;;5.76;56.59
46682;BME280;34101;53.430;-2.224;2023-04-04T03:18:13;102428.40;;;5.73;56.68
46682;BME280;34101;53.430;-2.224;2023-04-04T03:20:41;102428.95;;;5.68;56.74
46682;BME280;34101;53.430;-2.224;2023-04-04T03:23:08;102429.70;;;5.60;57.03
46682;BME280;34101;53.430;-2.224;2023-04-04T03:25:36;102429.19;;;5.53;57.34
46682;BME280;34101;53.430;-2.224;2023-04-04T03:28:14;102426.12;;;5.54;57.35
46682;BME280;34101;53.430;-2.224;2023-04-04T03:30:41;102424.02;;;5.54;57.50
46682;BME280;34101;53.430;-2.224;2023-04-04T03:33:09;102423.96;;;5.53;57.36
46682;BME280;34101;53.430;-2.224;2023-04-04T03:36:41;102418.15;;;5.42;57.58
46682;BME280;34101;53.430;-2.224;2023-04-04T03:39:08;102419.55;;;5.38;58.08
46682;BME280;34101;53.430;-2.224;2023-04-04T03:41:36;102418.23;;;5.34;58.20
46682;BME280;34101;53.430;-2.224;2023-04-04T03:44:04;102413.15;;;5.30;58.37
46682;BME280;34101;53.430;-2.224;2023-04-04T03:46:31;102411.46;;;5.30;58.48
46682;BME280;34101;53.430;-2.224;2023-04-04T03:48:58;102408.74;;;5.30;58.41
46682;BME280;34101;53.430;-2.224;2023-04-04T03:51:26;102406.17;;;5.25;58.54
46682;BME280;34101;53.430;-2.224;2023-04-04T03:53:53;102402.12;;;5.22;58.69
46682;BME280;34101;53.430;-2.224;2023-04-04T03:56:22;102405.16;;;5.19;58.86
46682;BME280;34101;53.430;-2.224;2023-04-04T03:58:49;102408.02;;;5.17;58.97
46682;BME280;34101;53.430;-2.224;2023-04-04T04:01:17;102411.28;;;5.14;59.24
46682;BME280;34101;53.430;-2.224;2023-04-04T04:03:44;102411.98;;;5.12;59.26
46682;BME280;34101;53.430;-2.224;2023-04-04T04:06:12;102410.21;;;5.04;59.33
46682;BME280;34101;53.430;-2.224;2023-04-04T04:08:39;102412.36;;;4.97;59.47
46682;BME280;34101;53.430;-2.224;2023-04-04T04:11:07;102414.08;;;4.90;59.57
46682;BME280;34101;53.430;-2.224;2023-04-04T04:20:20;102405.67;;;4.77;59.83
46682;BME280;34101;53.430;-2.224;2023-04-04T04:22:50;102405.04;;;4.79;59.86
46682;BME280;34101;53.430;-2.224;2023-04-04T04:25:28;102407.03;;;4.77;59.38
46682;BME280;34101;53.430;-2.224;2023-04-04T04:28:10;102410.52;;;4.69;59.24
46682;BME280;34101;53.430;-2.224;2023-04-04T04:52:21;102406.54;;;4.26;59.48
46682;BME280;34101;53.430;-2.224;2023-04-04T04:54:47;102398.99;;;4.22;59.55
46682;BME280;34101;53.430;-2.224;2023-04-04T04:57:13;102390.42;;;4.15;59.92
46682;BME280;34101;53.430;-2.224;2023-04-04T04:59:41;102384.47;;;4.17;59.77
46682;BME280;34101;53.430;-2.224;2023-04-04T05:02:08;102384.39;;;4.15;59.90
46682;BME280;34101;53.430;-2.224;2023-04-04T05:04:36;102378.16;;;4.18;59.73
46682;BME280;34101;53.430;-2.224;2023-04-04T05:07:03;102374.52;;;3.99;60.40
46682;BME280;34101;53.430;-2.224;2023-04-04T05:09:31;102362.27;;;4.08;60.34
46682;BME280;34101;53.430;-2.224;2023-04-04T05:11:58;102357.11;;;3.99;60.39
46682;BME280;34101;53.430;-2.224;2023-04-04T05:14:25;102352.15;;;3.97;60.50
46682;BME280;34101;53.430;-2.224;2023-04-04T05:16:52;102352.65;;;4.08;60.28
46682;BME280;34101;53.430;-2.224;2023-04-04T05:19:20;102350.62;;;4.03;60.26
46682;BME280;34101;53.430;-2.224;2023-04-04T05:21:47;102343.45;;;4.07;60.11
46682;BME280;34101;53.430;-2.224;2023-04-04T05:24:15;102345.36;;;4.13;60.67
46682;BME280;34101;53.430;-2.224;2023-04-04T05:26:42;102348.89;;;4.20;60.44
46682;BME280;34101;53.430;-2.224;2023-04-04T05:29:09;102351.36;;;4.24;60.16
46682;BME280;34101;53.430;-2.224;2023-04-04T05:31:37;102353.00;;;4.25;60.25
46682;BME280;34101;53.430;-2.224;2023-04-04T05:34:04;102354.80;;;4.23;60.27
46682;BME280;34101;53.430;-2.224;2023-04-04T05:36:32;102355.44;;;4.27;60.19
46682;BME280;34101;53.430;-2.224;2023-04-04T05:39:00;102349.93;;;4.27;60.12
46682;BME280;34101;53.430;-2.224;2023-04-04T05:41:27;102354.90;;;4.30;60.04
46682;BME280;34101;53.430;-2.224;2023-04-04T07:07:40;102410.25;;;5.76;57.93
46682;BME280;34101;53.430;-2.224;2023-04-04T07:10:10;102410.22;;;5.87;58.20
46682;BME280;34101;53.430;-2.224;2023-04-04T07:12:37;102412.25;;;5.97;57.74
46682;BME280;34101;53.430;-2.224;2023-04-04T07:15:04;102406.64;;;6.13;59.09
46682;BME280;34101;53.430;-2.224;2023-04-04T07:17:30;102405.12;;;6.24;58.16
46682;BME280;34101;53.430;-2.224;2023-04-04T07:19:57;102405.50;;;6.35;57.84
46682;BME280;34101;53.430;-2.224;2023-04-04T07:22:23;102406.11;;;6.47;56.56
46682;BME280;34101;53.430;-2.224;2023-04-04T07:24:49;102399.00;;;6.54;57.06
46682;BME280;34101;53.430;-2.224;2023-04-04T07:27:15;102393.54;;;6.68;56.03
46682;BME280;34101;53.430;-2.224;2023-04-04T07:29:42;102392.52;;;6.78;55.27
46682;BME280;34101;53.430;-2.224;2023-04-04T07:32:09;102392.47;;;6.91;54.92
46682;BME280;34101;53.430;-2.224;2023-04-04T07:34:37;102391.48;;;6.99;54.75
46682;BME280;34101;53.430;-2.224;2023-04-04T07:37:04;102393.61;;;7.08;53.92
46682;BME280;34101;53.430;-2.224;2023-04-04T07:39:32;102390.24;;;7.20;53.29
46682;BME280;34101;53.430;-2.224;2023-04-04T07:41:59;102390.72;;;7.27;52.93
46682;BME280;34101;53.430;-2.224;2023-04-04T07:44:27;102387.98;;;7.37;52.35
46682;BME280;34101;53.430;-2.224;2023-04-04T07:46:54;102384.45;;;7.49;52.65
46682;BME280;34101;53.430;-2.224;2023-04-04T07:49:22;102381.40;;;7.64;51.74
46682;BME280;34101;53.430;-2.224;2023-04-04T07:51:49;102377.90;;;7.72;52.78
46682;BME280;34101;53.430;-2.224;2023-04-04T07:54:17;102373.14;;;7.72;51.59
46682;BME280;34101;53.430;-2.224;2023-04-04T07:56:44;102371.72;;;7.87;51.16
46682;BME280;34101;53.430;-2.224;2023-04-04T07:59:12;102372.63;;;7.93;50.56
46682;BME280;34101;53.430;-2.224;2023-04-04T08:01:39;102371.20;;;7.91;50.63
46682;BME280;34101;53.430;-2.224;2023-04-04T08:04:11;102372.00;;;7.97;50.76
46682;BME280;34101;53.430;-2.224;2023-04-04T08:06:38;102367.98;;;8.13;49.98
46682;BME280;34101;53.430;-2.224;2023-04-04T08:09:05;102366.67;;;8.21;50.42
46682;BME280;34101;53.430;-2.224;2023-04-04T08:11:33;102363.80;;;8.33;49.38
46682;BME280;34101;53.430;-2.224;2023-04-04T08:14:00;102363.33;;;8.54;49.49
46682;BME280;34101;53.430;-2.224;2023-04-04T08:16:27;102363.27;;;8.24;49.52
46682;BME280;34101;53.430;-2.224;2023-04-04T08:18:55;102367.80;;;8.23;50.18
46682;BME280;34101;53.430;-2.224;2023-04-04T08:21:22;102370.97;;;8.31;49.83
46682;BME280;34101;53.430;-2.224;2023-04-04T08:23:50;102365.05;;;8.55;48.90
46682;BME280;34101;53.430;-2.224;2023-04-04T08:26:17;102364.81;;;8.85;48.52
46682;BME280;34101;53.430;-2.224;2023-04-04T08:28:45;102350.90;;;9.04;48.01
46682;BME280;34101;53.430;-2.224;2023-04-04T08:31:12;102350.10;;;9.21;47.87
46682;BME280;34101;53.430;-2.224;2023-04-04T08:33:40;102340.13;;;9.44;47.51
46682;BME280;34101;53.430;-2.224;2023-04-04T08:36:12;102341.78;;;9.74;46.78
46682;BME280;34101;53.430;-2.224;2023-04-04T08:38:39;102337.01;;;10.32;45.87
46682;BME280;34101;53.430;-2.224;2023-04-04T08:41:07;102339.63;;;10.63;44.85
46682;BME280;34101;53.430;-2.224;2023-04-04T08:43:36;102340.62;;;12.01;41.28
46682;BME280;34101;53.430;-2.224;2023-04-04T08:46:05;102337.22;;;12.96;39.17
46682;BME280;34101;53.430;-2.224;2023-04-04T08:48:34;102339.78;;;13.28;37.49
46682;BME280;34101;53.430;-2.224;2023-04-04T08:51:02;102335.17;;;14.05;35.70
46682;BME280;34101;53.430;-2.224;2023-04-04T08:53:31;102340.17;;;14.52;34.31
46682;BME280;34101;53.430;-2.224;2023-04-04T08:56:00;102335.87;;;14.87;33.46
46682;BME280;34101;53.430;-2.224;2023-04-04T08:58:27;102329.10;;;14.88;33.16
46682;BME280;34101;53.430;-2.224;2023-04-04T09:00:55;102321.15;;;14.77;32.76
46682;BME280;34101;53.430;-2.224;2023-04-04T09:03:23;102318.07;;;15.02;32.86
46682;BME280;34101;53.430;-2.224;2023-04-04T09:05:51;102314.97;;;15.31;31.81
46682;BME280;34101;53.430;-2.224;2023-04-04T09:08:19;102315.39;;;15.71;30.46
46682;BME280;34101;53.430;-2.224;2023-04-04T09:10:48;102314.14;;;15.83;29.84
46682;BME280;34101;53.430;-2.224;2023-04-04T09:13:16;102314.46;;;15.81;29.99
46682;BME280;34101;53.430;-2.224;2023-04-04T09:15:47;102315.21;;;16.00;29.27
46682;BME280;34101;53.430;-2.224;2023-04-04T09:18:15;102314.34;;;16.30;29.59
46682;BME280;34101;53.430;-2.224;2023-04-04T09:20:43;102314.24;;;15.27;30.49
46682;BME280;34101;53.430;-2.224;2023-04-04T09:23:12;102322.92;;;14.77;31.21
46682;BME280;34101;53.430;-2.224;2023-04-04T09:25:45;102317.34;;;15.84;29.25
46682;BME280;34101;53.430;-2.224;2023-04-04T09:28:13;102312.80;;;16.01;28.87
46682;BME280;34101;53.430;-2.224;2023-04-04T09:30:42;102316.63;;;16.55;28.59
46682;BME280;34101;53.430;-2.224;2023-04-04T09:33:10;102313.00;;;16.37;29.18
46682;BME280;34101;53.430;-2.224;2023-04-04T09:35:43;102307.25;;;16.39;28.76
46682;BME280;34101;53.430;-2.224;2023-04-04T09:38:11;102307.01;;;14.11;31.12
46682;BME280;34101;53.430;-2.224;2023-04-04T09:40:40;102305.93;;;14.78;31.11
46682;BME280;34101;53.430;-2.224;2023-04-04T09:43:08;102310.43;;;16.14;28.60
46682;BME280;34101;53.430;-2.224;2023-04-04T09:45:38;102313.61;;;14.75;31.30
46682;BME280;34101;53.430;-2.224;2023-04-04T09:48:05;102310.77;;;15.90;29.65
46682;BME280;34101;53.430;-2.224;2023-04-04T09:50:32;102312.61;;;16.03;28.80
46682;BME280;34101;53.430;-2.224;2023-04-04T09:53:00;102314.14;;;16.79;28.49
46682;BME280;34101;53.430;-2.224;2023-04-04T09:55:31;102314.37;;;14.83;30.24
46682;BME280;34101;53.430;-2.224;2023-04-04T09:57:59;102317.42;;;15.98;28.60
46682;BME280;34101;53.430;-2.224;2023-04-04T10:00:39;102315.03;;;17.01;27.46
46682;BME280;34101;53.430;-2.224;2023-04-04T10:03:07;102309.69;;;16.50;28.11
46682;BME280;34101;53.430;-2.224;2023-04-04T10:05:34;102304.67;;;16.48;28.21
46682;BME280;34101;53.430;-2.224;2023-04-04T10:08:13;102309.65;;;16.72;27.04
46682;BME280;34101;53.430;-2.224;2023-04-04T10:10:46;102311.21;;;16.84;26.83
46682;BME280;34101;53.430;-2.224;2023-04-04T10:13:22;102309.14;;;17.81;25.01
46682;BME280;34101;53.430;-2.224;2023-04-04T10:15:50;102305.16;;;18.37;24.61
46682;BME280;34101;53.430;-2.224;2023-04-04T10:18:17;102303.48;;;17.27;27.07
46682;BME280;34101;53.430;-2.224;2023-04-04T10:20:45;102294.43;;;19.11;24.00
46682;BME280;34101;53.430;-2.224;2023-04-04T10:23:13;102297.42;;;19.31;23.84
46682;BME280;34101;53.430;-2.224;2023-04-04T10:25:41;102288.11;;;19.65;23.36
46682;BME280;34101;53.430;-2.224;2023-04-04T10:28:09;102284.36;;;20.33;23.21
46682;BME280;34101;53.430;-2.224;2023-04-04T10:30:41;102281.01;;;20.53;22.41
46682;BME280;34101;53.430;-2.224;2023-04-04T10:33:09;102284.65;;;19.38;22.99
46682;BME280;34101;53.430;-2.224;2023-04-04T10:35:43;102276.74;;;19.68;21.75
46682;BME280;34101;53.430;-2.224;2023-04-04T10:38:12;102284.51;;;16.05;27.30
46682;BME280;34101;53.430;-2.224;2023-04-04T10:40:41;102279.93;;;18.29;24.12
46682;BME280;34101;53.430;-2.224;2023-04-04T10:43:11;102276.29;;;17.09;24.27
46682;BME280;34101;53.430;-2.224;2023-04-04T10:45:39;102270.50;;;18.38;23.44
46682;BME280;34101;53.430;-2.224;2023-04-04T10:48:07;102266.68;;;19.17;22.40
46682;BME280;34101;53.430;-2.224;2023-04-04T10:50:35;102275.00;;;18.34;23.66
46682;BME280;34101;53.430;-2.224;2023-04-04T10:53:02;102277.18;;;17.22;25.49
46682;BME280;34101;53.430;-2.224;2023-04-04T10:55:29;102270.81;;;19.32;22.49
46682;BME280;34101;53.430;-2.224;2023-04-04T10:57:58;102274.15;;;19.49;22.39
46682;BME280;34101;53.430;-2.224;2023-04-04T11:00:27;102278.00;;;18.45;23.70
46682;BME280;34101;53.430;-2.224;2023-04-04T11:02:56;102270.66;;;19.26;22.68
46682;BME280;34101;53.430;-2.224;2023-04-04T11:05:25;102271.71;;;19.15;23.51
46682;BME280;34101;53.430;-2.224;2023-04-04T11:08:00;102268.94;;;19.21;24.35
46682;BME280;34101;53.430;-2.224;2023-04-04T11:10:29;102270.55;;;19.21;22.93
46682;BME280;34101;53.430;-2.224;2023-04-04T11:12:59;102256.33;;;19.54;22.22
46682;BME280;34101;53.430;-2.224;2023-04-04T11:15:27;102257.06;;;19.81;22.53
46682;BME280;34101;53.430;-2.224;2023-04-04T11:18:10;102246.71;;;19.84;21.78
46682;BME280;34101;53.430;-2.224;2023-04-04T11:20:40;102246.79;;;19.89;21.90
46682;BME280;34101;53.430;-2.224;2023-04-04T11:23:09;102239.43;;;19.90;22.48
46682;BME280;34101;53.430;-2.224;2023-04-04T11:25:47;102242.75;;;20.17;21.78
46682;BME280;34101;53.430;-2.224;2023-04-04T11:28:42;102233.74;;;19.99;21.96
46682;BME280;34101;53.430;-2.224;2023-04-04T11:31:27;102230.33;;;20.19;22.26
46682;BME280;34101;53.430;-2.224;2023-04-04T11:33:56;102230.58;;;20.11;22.51
46682;BME280;34101;53.430;-2.224;2023-04-04T11:37:42;102221.63;;;20.12;22.72
46682;BME280;34101;53.430;-2.224;2023-04-04T11:40:10;102208.58;;;19.85;22.75
46682;BME280;34101;53.430;-2.224;2023-04-04T11:42:38;102220.88;;;19.82;21.46
46682;BME280;34101;53.430;-2.224;2023-04-04T11:45:08;102217.58;;;19.67;21.90
46682;BME280;34101;53.430;-2.224;2023-04-04T11:47:35;102216.06;;;18.89;22.95
46682;BME280;34101;53.430;-2.224;2023-04-04T11:50:07;102207.34;;;18.64;23.61
46682;BME280;34101;53.430;-2.224;2023-04-04T11:52:34;102209.45;;;19.24;21.55
46682;BME280;34101;53.430;-2.224;2023-04-04T11:55:12;102203.29;;;18.34;22.51
46682;BME280;34101;53.430;-2.224;2023-04-04T11:57:41;102199.11;;;18.95;22.43
46682;BME280;34101;53.430;-2.224;2023-04-04T12:00:09;102192.02;;;19.34;22.41
46682;BME280;34101;53.430;-2.224;2023-04-04T12:02:38;102181.73;;;19.29;23.17
46682;BME280;34101;53.430;-2.224;2023-04-04T12:05:06;102182.75;;;18.06;25.44
46682;BME280;34101;53.430;-2.224;2023-04-04T12:07:33;102182.84;;;18.41;23.95
46682;BME280;34101;53.430;-2.224;2023-04-04T12:10:02;102187.50;;;18.13;23.93
46682;BME280;34101;53.430;-2.224;2023-04-04T12:12:29;102176.92;;;17.99;23.34
46682;BME280;34101;53.430;-2.224;2023-04-04T12:14:57;102176.04;;;18.02;23.93
46682;BME280;34101;53.430;-2.224;2023-04-04T12:17:28;102185.29;;;16.81;26.85
46682;BME280;34101;53.430;-2.224;2023-04-04T12:19:55;102174.64;;;17.24;27.08
46682;BME280;34101;53.430;-2.224;2023-04-04T12:22:23;102174.07;;;16.97;26.36
46682;BME280;34101;53.430;-2.224;2023-04-04T12:24:50;102176.36;;;17.93;24.60
46682;BME280;34101;53.430;-2.224;2023-04-04T12:27:17;102163.71;;;18.05;24.45
46682;BME280;34101;53.430;-2.224;2023-04-04T12:29:46;102165.64;;;17.66;25.05
46682;BME280;34101;53.430;-2.224;2023-04-04T12:32:13;102175.44;;;17.29;25.85
46682;BME280;34101;53.430;-2.224;2023-04-04T12:34:42;102176.73;;;16.81;27.04
46682;BME280;34101;53.430;-2.224;2023-04-04T12:37:10;102171.55;;;16.49;26.92
46682;BME280;34101;53.430;-2.224;2023-04-04T12:39:43;102168.28;;;15.95;26.64
46682;BME280;34101;53.430;-2.224;2023-04-04T12:42:12;102159.14;;;14.85;28.46
46682;BME280;34101;53.430;-2.224;2023-04-04T12:44:45;102154.68;;;15.97;27.46
46682;BME280;34101;53.430;-2.224;2023-04-04T12:47:13;102134.79;;;15.74;26.71
46682;BME280;34101;53.430;-2.224;2023-04-04T12:49:44;102137.68;;;15.13;28.81
46682;BME280;34101;53.430;-2.224;2023-04-04T12:52:17;102136.24;;;15.77;27.94
46682;BME280;34101;53.430;-2.224;2023-04-04T12:54:45;102133.05;;;14.59;29.97
46682;BME280;34101;53.430;-2.224;2023-04-04T12:57:17;102136.16;;;15.65;29.35
46682;BME280;34101;53.430;-2.224;2023-04-04T12:59:45;102130.31;;;15.88;27.97
46682;BME280;34101;53.430;-2.224;2023-04-04T13:02:14;102120.01;;;15.65;28.32
46682;BME280;34101;53.430;-2.224;2023-04-04T13:04:45;102115.81;;;15.55;29.20
46682;BME280;34101;53.430;-2.224;2023-04-04T13:07:21;102107.90;;;16.17;28.12
46682;BME280;34101;53.430;-2.224;2023-04-04T13:09:53;102108.95;;;15.68;28.08
46682;BME280;34101;53.430;-2.224;2023-04-04T13:12:20;102108.56;;;16.10;25.27
46682;BME280;34101;53.430;-2.224;2023-04-04T13:14:58;102112.12;;;16.35;25.52
46682;BME280;34101;53.430;-2.224;2023-04-04T13:17:48;102109.83;;;16.40;26.20
46682;BME280;34101;53.430;-2.224;2023-04-04T13:20:18;102109.73;;;15.70;26.04
46682;BME280;34101;53.430;-2.224;2023-04-04T13:22:45;102104.30;;;15.75;26.39
46682;BME280;34101;53.430;-2.224;2023-04-04T13:25:13;102097.68;;;15.72;26.80
46682;BME280;34101;53.430;-2.224;2023-04-04T13:27:40;102095.73;;;16.19;25.55
46682;BME280;34101;53.430;-2.224;2023-04-04T13:30:08;102090.86;;;16.44;25.43
46682;BME280;34101;53.430;-2.224;2023-04-04T13:32:36;102086.23;;;16.73;26.04
46682;BME280;34101;53.430;-2.224;2023-04-04T13:35:03;102092.72;;;16.34;25.00
46682;BME280;34101;53.430;-2.224;2023-04-04T13:37:30;102090.22;;;16.32;26.02
46682;BME280;34101;53.430;-2.224;2023-04-04T13:39:57;102090.74;;;16.39;25.35
46682;BME280;34101;53.430;-2.224;2023-04-04T13:42:25;102090.40;;;16.09;26.59
46682;BME280;34101;53.430;-2.224;2023-04-04T13:44:52;102082.62;;;16.22;26.34
46682;BME280;34101;53.430;-2.224;2023-04-04T13:47:20;102069.57;;;16.50;26.11
46682;BME280;34101;53.430;-2.224;2023-04-04T13:49:47;102065.86;;;16.57;26.24
46682;BME280;34101;53.430;-2.224;2023-04-04T13:52:15;102070.51;;;16.37;26.04
46682;BME280;34101;53.430;-2.224;2023-04-04T13:54:42;102061.78;;;16.59;25.64
46682;BME280;34101;53.430;-2.224;2023-04-04T13:57:10;102070.63;;;16.49;24.76
46682;BME280;34101;53.430;-2.224;2023-04-04T13:59:37;102065.66;;;16.29;23.82
46682;BME280;34101;53.430;-2.224;2023-04-04T14:02:04;102062.41;;;16.21;25.07
46682;BME280;34101;53.430;-2.224;2023-04-04T14:04:31;102064.04;;;16.14;25.47
46682;BME280;34101;53.430;-2.224;2023-04-04T14:06:58;102056.31;;;15.74;25.29
46682;BME280;34101;53.430;-2.224;2023-04-04T14:09:26;102049.58;;;16.02;25.08
46682;BME280;34101;53.430;-2.224;2023-04-04T14:11:53;102043.14;;;15.90;25.56
46682;BME280;34101;53.430;-2.224;2023-04-04T14:14:21;102049.84;;;15.78;24.74
46682;BME280;34101;53.430;-2.224;2023-04-04T14:16:48;102046.43;;;15.68;26.39
46682;BME280;34101;53.430;-2.224;2023-04-04T14:19:15;102046.13;;;15.84;27.32
46682;BME280;34101;53.430;-2.224;2023-04-04T14:21:43;102043.92;;;16.28;26.75
46682;BME280;34101;53.430;-2.224;2023-04-04T14:24:11;102041.28;;;15.83;28.18
46682;BME280;34101;53.430;-2.224;2023-04-04T14:26:39;102039.15;;;16.58;25.19
46682;BME280;34101;53.430;-2.224;2023-04-04T14:29:05;102036.50;;;16.19;25.66
46682;BME280;34101;53.430;-2.224;2023-04-04T14:31:33;102031.18;;;16.43;25.86
46682;BME280;34101;53.430;-2.224;2023-04-04T14:34:01;102026.71;;;16.24;26.41
46682;BME280;34101;53.430;-2.224;2023-04-04T14:36:29;102022.01;;;15.77;26.40
46682;BME280;34101;53.430;-2.224;2023-04-04T14:38:56;102013.52;;;16.24;25.42
46682;BME280;34101;53.430;-2.224;2023-04-04T14:41:24;102002.39;;;16.76;24.57
46682;BME280;34101;53.430;-2.224;2023-04-04T14:43:51;102003.03;;;16.88;24.21
46682;BME280;34101;53.430;-2.224;2023-04-04T14:46:18;102002.18;;;16.24;25.10
46682;BME280;34101;53.430;-2.224;2023-04-04T14:48:46;101994.34;;;16.73;23.90
46682;BME280;34101;53.430;-2.224;2023-04-04T14:51:13;101992.79;;;16.50;24.05
46682;BME280;34101;53.430;-2.224;2023-04-04T14:53:41;101988.39;;;16.76;24.18
46682;BME280;34101;53.430;-2.224;2023-04-04T14:56:08;101986.43;;;16.28;24.18
46682;BME280;34101;53.430;-2.224;2023-04-04T14:58:36;101983.77;;;16.09;22.85
46682;BME280;34101;53.430;-2.224;2023-04-04T15:01:04;101983.80;;;16.26;24.01
46682;BME280;34101;53.430;-2.224;2023-04-04T15:03:32;101981.85;;;16.50;22.85
46682;BME280;34101;53.430;-2.224;2023-04-04T15:06:00;101968.47;;;16.69;23.40
46682;BME280;34101;53.430;-2.224;2023-04-04T15:08:27;101968.52;;;16.45;22.49
46682;BME280;34101;53.430;-2.224;2023-04-04T15:10:55;101971.06;;;16.33;22.89
46682;BME280;34101;53.430;-2.224;2023-04-04T15:13:22;101977.24;;;15.63;22.33
46682;BME280;34101;53.430;-2.224;2023-04-04T15:18:01;101973.15;;;15.98;24.51
46682;BME280;34101;53.430;-2.224;2023-04-04T15:20:30;101967.56;;;16.00;25.29
46682;BME280;34101;53.430;-2.224;2023-04-04T15:25:41;101954.95;;;16.55;22.40
46682;BME280;34101;53.430;-2.224;2023-04-04T15:28:09;101957.33;;;16.74;22.61
46682;BME280;34101;53.430;-2.224;2023-04-04T15:30:36;101950.19;;;16.30;22.20
46682;BME280;34101;53.430;-2.224;2023-04-04T15:33:08;101944.75;;;16.64;21.20
46682;BME280;34101;53.430;-2.224;2023-04-04T15:35:36;101944.31;;;15.78;21.06
46682;BME280;34101;53.430;-2.224;2023-04-04T15:38:03;101946.73;;;16.16;22.83
46682;BME280;34101;53.430;-2.224;2023-04-04T15:40:30;101945.03;;;16.10;24.48
46682;BME280;34101;53.430;-2.224;2023-04-04T15:43:08;101943.25;;;16.47;23.38
46682;BME280;34101;53.430;-2.224;2023-04-04T15:45:45;101933.64;;;16.42;22.52
46682;BME280;34101;53.430;-2.224;2023-04-04T15:48:22;101927.07;;;16.13;23.64
46682;BME280;34101;53.430;-2.224;2023-04-04T15:51:01;101922.60;;;16.57;23.03
46682;BME280;34101;53.430;-2.224;2023-04-04T15:53:38;101919.68;;;16.74;22.91
46682;BME280;34101;53.430;-2.224;2023-04-04T15:56:15;101926.34;;;16.39;22.86
46682;BME280;34101;53.430;-2.224;2023-04-04T15:58:43;101928.71;;;16.27;22.96
46682;BME280;34101;53.430;-2.224;2023-04-04T16:01:11;101925.36;;;16.57;22.67
46682;BME280;34101;53.430;-2.224;2023-04-04T16:09:59;101917.07;;;16.08;22.15
46682;BME280;34101;53.430;-2.224;2023-04-04T16:12:41;101908.44;;;15.55;23.10
46682;BME280;34101;53.430;-2.224;2023-04-04T16:15:13;101911.29;;;15.71;24.41
46682;BME280;34101;53.430;-2.224;2023-04-04T16:17:58;101912.73;;;15.92;24.02
46682;BME280;34101;53.430;-2.224;2023-04-04T16:30:48;101901.70;;;16.07;24.02
46682;BME280;34101;53.430;-2.224;2023-04-04T16:33:20;101905.22;;;15.83;23.19
46682;BME280;34101;53.430;-2.224;2023-04-04T16:35:47;101900.97;;;15.75;23.66
46682;BME280;34101;53.430;-2.224;2023-04-04T16:38:18;101893.23;;;15.53;24.87
46682;BME280;34101;53.430;-2.224;2023-04-04T16:40:48;101891.25;;;15.97;24.05
46682;BME280;34101;53.430;-2.224;2023-04-04T16:43:20;101887.93;;;15.33;25.17
46682;BME280;34101;53.430;-2.224;2023-04-04T16:45:49;101876.50;;;15.49;24.99
46682;BME280;34101;53.430;-2.224;2023-04-04T16:48:18;101885.89;;;14.97;26.04
46682;BME280;34101;53.430;-2.224;2023-04-04T16:50:45;101890.33;;;15.44;25.97
46682;BME280;34101;53.430;-2.224;2023-04-04T17:00:08;101885.44;;;15.40;27.26
46682;BME280;34101;53.430;-2.224;2023-04-04T17:02:46;101880.85;;;15.24;27.33
46682;BME280;34101;53.430;-2.224;2023-04-04T17:05:23;101877.29;;;15.34;26.86
46682;BME280;34101;53.430;-2.224;2023-04-04T17:08:00;101874.33;;;15.46;25.98
46682;BME280;34101;53.430;-2.224;2023-04-04T17:10:37;101876.13;;;15.41;26.63